ADDS METAR Data INFO
IDs: Format: Raw Decoded Include TAF

Data at: 2258 UTC 22 Jun 2018

KEIR 222235Z AUTO 25013KT 10SM FEW020 29/24 A2992 RMK A01
KEIR 222215Z AUTO 26012KT 10SM FEW022 FEW027 29/24 A2993 RMK A01
KEIR 222155Z AUTO 25013KT 10SM SCT022 BKN026 BKN034 29/24 A2993 RMK A01
KEIR 222135Z AUTO 25011KT FEW021 SCT026 SCT033 29/24 A2994 RMK A01
KEIR 222115Z AUTO 26011KT 10SM SCT022 SCT027 SCT033 29/24 A2994 RMK A01
KEIR 222055Z AUTO 26011KT 10SM SCT021 SCT028 SCT038 29/24 A2994 RMK A01
KEIR 222035Z AUTO 27012KT 10SM FEW021 SCT027 SCT038 29/24 A2995 RMK A01
KEIR 222015Z AUTO 26012KT 10SM SCT022 BKN027 29/24 A2995 RMK A01
KEIR 221955Z AUTO 27010KT 10SM FEW023 FEW029 29/24 A2996 RMK A01
KEIR 221935Z AUTO 27012KT 10SM FEW021 29/24 A2997 RMK A01
KEIR 221915Z AUTO 26012KT 10SM FEW021 FEW028 FEW033 29/24 A2997 RMK A01
KEIR 221855Z AUTO 26014KT 10SM FEW020 FEW028 FEW033 29/24 A2998 RMK A01
KEIR 221835Z AUTO 26013KT 10SM FEW021 SCT028 29/24 A2999 RMK A01
KEIR 221815Z AUTO 26013KT 10SM FEW021 FEW028 29/24 A2999 RMK A01
KEIR 221755Z AUTO 25014KT 10SM FEW021 29/24 A2999 RMK A01
KEIR 221735Z AUTO 26016KT 10SM SCT020 SCT028 29/24 A2999 RMK A01
KEIR 221715Z AUTO 25013KT 10SM SCT021 SCT028 28/25 A2999 RMK A01
KEIR 221655Z AUTO 25015KT 10SM SCT020 SCT026 28/25 A2999 RMK A01
KEIR 221635Z AUTO 25015KT 10SM SCT020 28/24 A2998 RMK A01
KEIR 221615Z AUTO 25015KT 10SM FEW021 28/24 A2998 RMK A01
KEIR 221555Z AUTO 25014KT 10SM CLR 28/24 A2998 RMK A01
KEIR 221535Z AUTO 25015KT 10SM CLR 28/24 A2998 RMK A01
KEIR 221515Z AUTO 26014KT 10SM CLR 28/24 A2998 RMK A01
KEIR 221455Z AUTO 26014KT 9SM CLR 28/24 A2998 RMK A01
KEIR 221435Z AUTO 25016KT 10SM CLR 28/24 A2998 RMK A01
KEIR 221415Z AUTO 25016KT 10SM SCT019 SCT030 28/24 A2998 RMK A01
KEIR 221355Z AUTO 24013KT 9SM SCT018 28/25 A2998 RMK A01
KEIR 221335Z AUTO 25015KT 9SM FEW018 28/24 A2998 RMK A01
KEIR 221315Z AUTO 25014KT 9SM FEW017 28/25 A2997 RMK A01
KEIR 221255Z AUTO 25014KT 9SM SCT017 28/25 A2997 RMK A01
KEIR 221235Z AUTO 25013KT 10SM FEW019 28/24 A2996 RMK A01
KEIR 221215Z AUTO 26011KT 9SM SCT018 28/24 A2996 RMK A01
KEIR 221155Z AUTO 26011KT 9SM FEW017 28/24 A2996 RMK A01
KEIR 221135Z AUTO 26011KT 9SM CLR 28/25 A2995 RMK A01
KEIR 221115Z AUTO 25011KT 9SM FEW022 28/24 A2995 RMK A01
KEIR 221055Z AUTO 27011KT 9SM SCT022 28/25 A2994 RMK A01
KEIR 221035Z AUTO 27011KT 9SM CLR 28/24 A2994 RMK A01
KEIR 221015Z AUTO 26012KT 9SM CLR 28/24 A2994 RMK A01
KEIR 220955Z AUTO 27011KT 9SM CLR 28/24 A2994 RMK A01
KEIR 220935Z AUTO 26012KT 9SM SCT021 SCT027 28/24 A2994 RMK A01
KEIR 220915Z AUTO 26014KT 9SM BKN020 BKN026 28/25 A2994 RMK A01
KEIR 220855Z AUTO 26014KT 9SM BKN018 BKN022 28/25 A2994 RMK A01
KEIR 220835Z AUTO 25014KT 8SM OVC021 28/25 A2994 RMK A01
KEIR 220815Z AUTO 25013KT 8SM BKN021 28/25 A2994 RMK A01
KEIR 220755Z AUTO 26013KT 8SM SCT017 BKN022 28/25 A2994 RMK A01
KEIR 220735Z AUTO 25012KT 9SM FEW017 OVC023 28/25 A2994 RMK A01
KEIR 220715Z AUTO 25011KT 8SM SCT016 BKN024 OVC035 28/25 A2994 RMK A01
KEIR 220655Z AUTO 25012KT 8SM SCT015 BKN022 OVC027 28/25 A2994 RMK A01
KEIR 220635Z AUTO 25012KT 9SM SCT016 OVC022 28/25 A2994 RMK A01
KEIR 220615Z AUTO 24011KT 8SM BKN016 OVC022 28/25 A2994 RMK A01
KEIR 220555Z AUTO 24012KT 8SM SCT016 BKN021 OVC035 28/25 A2995 RMK A01
KEIR 220535Z AUTO 23011KT 9SM BKN016 BKN024 OVC034 28/26 A2995 RMK A01
KEIR 220515Z AUTO 23008KT 9SM FEW016 BKN021 OVC027 28/25 A2996 RMK A01
KEIR 220455Z AUTO 24008KT 8SM FEW015 BKN021 28/25 A2996 RMK A01
KEIR 220435Z AUTO 24008KT 9SM SCT015 BKN022 BKN031 28/25 A2996 RMK A01
KEIR 220415Z AUTO 23010KT 8SM SCT015 SCT022 BKN031 28/25 A2996 RMK A01
KEIR 220355Z AUTO 23010KT 9SM FEW016 FEW023 28/25 A2995 RMK A01
KEIR 220335Z AUTO 22011KT 7SM SCT022 SCT029 28/25 A2995 RMK A01
KEIR 220315Z AUTO 22011KT 8SM SCT017 BKN022 BKN029 28/25 A2995 RMK A01
KEIR 220255Z AUTO 23010KT 8SM FEW016 BKN021 OVC033 28/25 A2995 RMK A01
KEIR 220235Z AUTO 22009KT 8SM FEW016 BKN021 BKN028 28/25 A2995 RMK A01
KEIR 220215Z AUTO 22009KT 8SM FEW016 SCT023 BKN027 28/25 A2995 RMK A01
KEIR 220155Z AUTO 23010KT 8SM FEW017 BKN023 OVC031 28/25 A2994 RMK A01
KEIR 220135Z AUTO 22008KT 9SM BKN017 BKN022 28/25 A2994 RMK A01
KEIR 220115Z AUTO 24009KT 9SM BKN020 28/25 A2993 RMK A01
KEIR 220055Z AUTO 24008KT 9SM FEW018 SCT025 28/25 A2993 RMK A01
KEIR 220035Z AUTO 23007KT 9SM SCT019 28/25 A2994 RMK A01
KEIR 220010Z AUTO 24006KT 9SM CLR 28/25 A2993 RMK A01
KEIR 212355Z AUTO 23008KT 9SM CLR 28/25 A2993 RMK A01
KEIR 212335Z AUTO 23008KT 8SM CLR 29/24 A2992 RMK A01
KEIR 212315Z AUTO 24008KT 9SM CLR 29/24 A2992 RMK A01
KEIR 212255Z AUTO 24008KT 9SM CLR 29/24 A2993 RMK A01
KEIR 212235Z AUTO 25007KT 9SM CLR 29/24 A2993 RMK A01
KEIR 212215Z AUTO 27007KT 9SM CLR 29/24 A2993 RMK A01
KEIR 212155Z AUTO 27008KT 9SM FEW019 FEW025 FEW030 29/24 A2993 RMK A01
KEIR 212135Z AUTO 28007KT 8SM SCT020 SCT025 SCT030 28/24 A2994 RMK A01
KEIR 212115Z AUTO 25007KT 9SM CLR 28/24 A2994 RMK A01
KEIR 212055Z AUTO 26007KT 8SM CLR 28/24 A2994 RMK A01
KEIR 212035Z AUTO 26008KT 8SM CLR 29/24 A2995 RMK A01
KEIR 212015Z AUTO 27008KT 9SM CLR 29/24 A2995 RMK A01
KEIR 211955Z AUTO 26008KT 9SM SCT021 SCT027 29/24 A2995 RMK A01
KEIR 211935Z AUTO 28007KT 9SM SCT021 SCT029 29/24 A2996 RMK A01
KEIR 211915Z AUTO 25007KT 9SM FEW021 29/24 A2996 RMK A01
KEIR 211855Z AUTO 24009KT 9SM CLR 29/24 A2996 RMK A01
KEIR 211835Z AUTO 24008KT 9SM CLR 28/24 A2997 RMK A01
KEIR 211815Z AUTO 25007KT 8SM FEW021 28/24 A2997 RMK A01
KEIR 211755Z AUTO 23010KT SCT021 29/24 A2997 RMK A01
KEIR 211735Z AUTO 24010KT 8SM FEW020 FEW025 29/24 A2998 RMK A01
KEIR 211715Z AUTO 24010KT 8SM FEW021 FEW026 29/24 A2998 RMK A01
KEIR 211655Z AUTO 23011KT 9SM BKN020 29/24 A2998 RMK A01
KEIR 211635Z AUTO 22012KT 8SM BKN020 29/24 A2997 RMK A01
KEIR 211615Z AUTO 21012KT 9SM FEW020 29/24 A2997 RMK A01
KEIR 211555Z AUTO 22012KT 9SM FEW020 28/24 A2997 RMK A01
KEIR 211535Z AUTO 22013KT 8SM CLR 29/24 A2996 RMK A01
KEIR 211515Z AUTO 21012KT 9SM FEW018 29/24 A2996 RMK A01
KEIR 211455Z AUTO 21011KT 8SM CLR 28/24 A2996 RMK A01
KEIR 211435Z AUTO 21011KT 8SM CLR 28/24 A2996 RMK A01
KEIR 211355Z AUTO 21014KT 8SM CLR 28/24 A2995 RMK A01
KEIR 211335Z AUTO 22015KT 9SM CLR 28/24 A2995 RMK A01
KEIR 211315Z AUTO 21014KT 8SM FEW020 28/24 A2995 RMK A01
KEIR 211255Z AUTO 22015KT 8SM SCT020 28/24 A2995 RMK A01
KEIR 211235Z AUTO 22014KT 8SM FEW020 28/24 A2995 RMK A01
KEIR 211215Z AUTO 22016KT 8SM FEW020 28/24 A2994 RMK A01
KEIR 211155Z AUTO 21015KT 8SM CLR 28/24 A2993 RMK A01
KEIR 211135Z AUTO 22017KT 8SM FEW020 28/24 A2993 RMK A01
KEIR 211115Z AUTO 21015KT 8SM BKN020 28/24 A2993 RMK A01